createdAt,value
2018-09-12T00:01:08.023Z,76.66
2018-09-12T00:03:36.183Z,77.60
2018-09-12T00:06:04.280Z,77.87
2018-09-12T00:08:32.427Z,78.31
2018-09-12T00:11:00.463Z,78.94
2018-09-12T00:13:28.577Z,79.39
2018-09-12T00:15:56.679Z,79.05
2018-09-12T00:18:24.788Z,80.14
2018-09-12T00:20:52.895Z,80.44
2018-09-12T00:23:21.010Z,80.09
2018-09-12T00:25:49.104Z,81.11
2018-09-12T00:28:17.224Z,81.87
2018-09-12T00:30:45.347Z,82.33
2018-09-12T00:33:13.463Z,81.83
2018-09-12T00:35:41.555Z,81.53
2018-09-12T00:38:09.633Z,81.81
2018-09-12T00:40:37.696Z,82.20
2018-09-12T00:43:05.801Z,82.16
2018-09-12T00:45:34.923Z,82.07
2018-09-12T00:48:03.023Z,82.86
2018-09-12T00:50:31.113Z,82.77
2018-09-12T00:52:59.212Z,82.92
2018-09-12T00:55:27.287Z,83.08
2018-09-12T00:57:55.403Z,83.83
2018-09-12T01:00:23.550Z,83.19
2018-09-12T01:02:51.659Z,83.19
2018-09-12T01:05:19.739Z,82.80
2018-09-12T01:07:47.830Z,83.57
2018-09-12T01:10:15.924Z,83.51
2018-09-12T01:12:45.071Z,82.88
2018-09-12T01:15:13.146Z,82.37
2018-09-12T01:17:41.250Z,82.22
2018-09-12T01:20:09.349Z,82.15
2018-09-12T01:22:37.706Z,82.75
2018-09-12T01:25:06.186Z,82.66
2018-09-12T01:27:34.293Z,82.93
2018-09-12T01:30:02.415Z,82.89
2018-09-12T01:32:30.512Z,82.31
2018-09-12T01:34:58.595Z,82.04
2018-09-12T01:37:26.836Z,82.18
2018-09-12T01:39:54.928Z,82.90
2018-09-12T01:42:23.020Z,82.94
2018-09-12T01:44:51.255Z,83.46
2018-09-12T01:47:19.343Z,83.73
2018-09-12T01:49:47.793Z,84.18
2018-09-12T01:52:15.912Z,84.67
2018-09-12T01:54:43.988Z,84.76
2018-09-12T01:57:12.069Z,85.04
2018-09-12T01:59:40.119Z,85.51
2018-09-12T02:02:08.238Z,85.41
2018-09-12T02:04:36.345Z,85.85
2018-09-12T02:07:04.435Z,85.38
2018-09-12T02:09:32.528Z,84.41
2018-09-12T02:12:00.604Z,84.38
2018-09-12T02:14:28.691Z,83.69
2018-09-12T02:16:56.774Z,83.86
2018-09-12T02:19:24.864Z,83.46
2018-09-12T02:21:53.105Z,83.04
2018-09-12T02:24:21.248Z,83.14
2018-09-12T02:26:49.338Z,83.25
2018-09-12T02:29:17.468Z,83.80
2018-09-12T02:31:45.576Z,84.51
2018-09-12T02:34:13.643Z,85.08
2018-09-12T02:36:41.740Z,85.50
2018-09-12T02:39:09.874Z,85.88
2018-09-12T02:41:38.661Z,86.76
2018-09-12T02:44:06.824Z,86.91
2018-09-12T02:46:34.954Z,86.65
2018-09-12T02:49:03.239Z,86.25
2018-09-12T02:51:31.363Z,86.77
2018-09-12T02:53:59.459Z,87.01
2018-09-12T02:56:27.591Z,87.08
2018-09-12T02:58:55.751Z,86.76
2018-09-12T03:01:23.925Z,87.38
2018-09-12T03:03:52.035Z,87.55
2018-09-12T03:06:20.267Z,87.75
2018-09-12T03:08:48.504Z,88.45
2018-09-12T03:11:16.693Z,88.50
2018-09-12T03:13:44.795Z,88.18
2018-09-12T03:16:12.905Z,88.76
2018-09-12T03:18:41.074Z,89.17
2018-09-12T03:21:09.950Z,89.30
2018-09-12T03:23:38.010Z,89.75
2018-09-12T03:26:06.123Z,90.10
2018-09-12T03:28:34.232Z,90.06
2018-09-12T03:31:02.646Z,89.90
2018-09-12T03:33:30.623Z,90.57
2018-09-12T03:35:58.734Z,90.91
2018-09-12T03:38:26.855Z,91.20
2018-09-12T03:40:54.970Z,91.68
2018-09-12T03:43:23.126Z,92.53
2018-09-12T03:45:51.292Z,92.67
2018-09-12T03:48:19.398Z,92.43
2018-09-12T03:50:47.500Z,91.69
2018-09-12T03:53:15.610Z,91.59
2018-09-12T03:55:43.715Z,91.44
2018-09-12T03:58:11.860Z,91.56
2018-09-12T04:00:41.030Z,92.28
2018-09-12T04:03:09.184Z,92.45
2018-09-12T04:05:37.282Z,92.33
2018-09-12T04:08:05.414Z,92.39
2018-09-12T04:10:33.522Z,92.30
2018-09-12T04:13:01.696Z,92.10
2018-09-12T04:15:29.812Z,92.40
2018-09-12T04:17:57.924Z,92.51
2018-09-12T04:20:26.027Z,92.26
2018-09-12T04:22:54.152Z,92.52
2018-09-12T04:25:22.259Z,92.33
2018-09-12T04:27:50.377Z,92.05
2018-09-12T04:30:18.470Z,92.01
2018-09-12T04:32:46.568Z,91.84
2018-09-12T04:35:14.726Z,91.64
2018-09-12T04:37:42.827Z,91.56
2018-09-12T04:40:10.943Z,91.55
2018-09-12T04:42:39.045Z,91.46
2018-09-12T04:45:07.191Z,91.45
2018-09-12T04:47:35.287Z,91.64
2018-09-12T04:50:03.432Z,91.05
2018-09-12T04:52:31.611Z,91.19
2018-09-12T04:54:59.722Z,91.11
2018-09-12T04:57:27.792Z,90.38
2018-09-12T04:59:55.905Z,90.07
2018-09-12T05:02:24.000Z,90.43
2018-09-12T05:04:52.191Z,90.52
2018-09-12T05:07:20.319Z,90.92
2018-09-12T05:09:48.416Z,90.81
2018-09-12T05:12:16.532Z,91.02
2018-09-12T05:14:44.640Z,90.97
2018-09-12T05:17:12.736Z,90.94
2018-09-12T05:19:40.846Z,91.27
2018-09-12T05:22:09.220Z,91.35
2018-09-12T05:24:37.330Z,91.22
2018-09-12T05:27:05.607Z,90.87
2018-09-12T05:29:33.723Z,91.77
2018-09-12T05:32:01.917Z,90.90
2018-09-12T05:34:30.047Z,90.51
2018-09-12T05:36:58.169Z,90.44
2018-09-12T05:39:26.293Z,90.21
2018-09-12T05:41:54.385Z,90.00
2018-09-12T05:44:22.471Z,89.56
2018-09-12T05:46:50.555Z,89.00
2018-09-12T05:49:18.628Z,89.35
2018-09-12T05:51:46.718Z,88.84
2018-09-12T05:54:15.768Z,88.62
2018-09-12T05:56:43.850Z,88.49
2018-09-12T05:59:11.966Z,85.64
2018-09-12T06:01:40.041Z,84.87
2018-09-12T06:04:08.155Z,79.92
2018-09-12T06:06:36.289Z,80.27
2018-09-12T06:09:06.052Z,81.64
2018-09-12T06:11:34.229Z,82.20
2018-09-12T06:14:02.404Z,82.67
2018-09-12T06:16:30.435Z,84.60
2018-09-12T06:18:58.566Z,84.78
2018-09-12T06:21:26.924Z,83.50
2018-09-12T06:23:55.024Z,83.38
2018-09-12T06:26:23.124Z,82.67
2018-09-12T06:28:51.200Z,82.19
2018-09-12T06:31:19.295Z,81.75
2018-09-12T06:33:47.572Z,80.81
2018-09-12T06:36:15.687Z,79.73
2018-09-12T06:38:43.847Z,80.14
2018-09-12T06:41:11.875Z,80.05
2018-09-12T06:43:40.088Z,78.67
2018-09-12T06:46:08.219Z,78.51
2018-09-12T06:48:36.303Z,78.70
2018-09-12T06:51:04.406Z,78.53
2018-09-12T06:53:32.490Z,79.10
2018-09-12T06:56:00.587Z,79.39
2018-09-12T06:58:28.675Z,78.32
2018-09-12T07:00:56.818Z,78.74
2018-09-12T07:03:24.850Z,77.36
2018-09-12T07:05:52.920Z,76.59
2018-09-12T07:08:21.067Z,76.21
2018-09-12T07:10:49.163Z,75.33
2018-09-12T07:13:17.266Z,74.80
2018-09-12T07:15:45.443Z,74.07
2018-09-12T07:18:13.560Z,72.29
2018-09-12T07:20:41.678Z,72.59
2018-09-12T07:23:09.795Z,72.69
2018-09-12T07:25:37.947Z,72.51
2018-09-12T07:28:06.140Z,71.86
2018-09-12T07:30:34.263Z,73.00
2018-09-12T07:33:02.280Z,70.01
2018-09-12T07:35:30.357Z,70.44
2018-09-12T07:37:58.475Z,68.63
2018-09-12T07:40:26.630Z,68.15
2018-09-12T07:42:54.719Z,67.70
2018-09-12T07:45:22.797Z,66.95
2018-09-12T07:47:51.009Z,66.37
2018-09-12T07:50:19.095Z,66.03
2018-09-12T07:52:47.186Z,64.83
2018-09-12T07:55:15.273Z,65.20
2018-09-12T07:57:43.346Z,63.86
2018-09-12T08:00:11.515Z,63.16
2018-09-12T08:02:39.546Z,62.65
2018-09-12T08:05:07.733Z,61.75
2018-09-12T08:07:35.731Z,61.59
2018-09-12T08:10:03.902Z,61.80
2018-09-12T08:12:32.000Z,60.01
2018-09-12T08:15:01.010Z,57.96
2018-09-12T08:17:29.127Z,57.60
2018-09-12T08:19:57.234Z,56.54
2018-09-12T08:22:25.465Z,55.70
2018-09-12T08:24:53.561Z,54.91
2018-09-12T08:27:21.631Z,53.86
2018-09-12T08:29:49.723Z,54.52
2018-09-12T08:32:17.871Z,53.36
2018-09-12T08:34:45.971Z,53.81
2018-09-12T08:37:14.071Z,53.51
2018-09-12T08:39:42.151Z,51.27
2018-09-12T08:42:10.259Z,53.47
2018-09-12T08:44:38.334Z,53.02
2018-09-12T08:47:06.451Z,52.63
2018-09-12T08:49:34.545Z,51.19
2018-09-12T08:52:02.991Z,49.15
2018-09-12T08:54:31.095Z,48.53
2018-09-12T08:56:59.220Z,48.52
2018-09-12T08:59:27.311Z,48.05
2018-09-12T09:02:02.119Z,47.57
2018-09-12T09:04:30.224Z,46.99
2018-09-12T09:06:58.306Z,47.36
2018-09-12T09:09:26.400Z,46.85
2018-09-12T09:11:55.001Z,45.98
2018-09-12T09:14:23.104Z,45.07
2018-09-12T09:16:51.187Z,45.44
2018-09-12T09:19:19.296Z,45.17
2018-09-12T09:21:47.364Z,46.06
2018-09-12T09:24:15.499Z,44.43
2018-09-12T09:26:43.613Z,44.30
2018-09-12T09:29:11.739Z,44.12
2018-09-12T09:31:39.856Z,42.96
2018-09-12T09:34:07.932Z,42.92
2018-09-12T09:36:36.004Z,42.39
2018-09-12T09:39:06.243Z,41.56
2018-09-12T09:41:34.362Z,41.42
2018-09-12T09:44:02.528Z,41.02
2018-09-12T09:46:30.606Z,41.33
2018-09-12T09:48:58.731Z,40.70
2018-09-12T09:51:26.837Z,40.08
2018-09-12T09:53:54.938Z,39.22
2018-09-12T09:56:23.112Z,39.85
2018-09-12T09:58:51.221Z,38.75
2018-09-12T10:01:24.656Z,38.96
2018-09-12T10:03:58.187Z,38.00
2018-09-12T10:07:04.180Z,38.78
2018-09-12T10:09:33.477Z,38.38
2018-09-12T10:12:02.577Z,38.01
2018-09-12T10:14:30.669Z,37.29
2018-09-12T10:16:58.801Z,37.52
2018-09-12T10:19:26.875Z,37.98
2018-09-12T10:21:54.992Z,36.91
2018-09-12T10:24:23.216Z,35.79
2018-09-12T10:26:51.284Z,35.37
2018-09-12T10:29:19.462Z,35.74
2018-09-12T10:31:47.984Z,36.22
2018-09-12T10:34:16.120Z,36.06
2018-09-12T10:36:44.224Z,35.40
2018-09-12T10:39:13.725Z,35.21
2018-09-12T10:41:42.616Z,35.15
2018-09-12T10:44:10.927Z,34.63
2018-09-12T10:46:39.237Z,34.52
2018-09-12T10:49:07.756Z,35.14
2018-09-12T10:51:35.839Z,35.57
2018-09-12T10:54:03.948Z,33.31
2018-09-12T10:56:38.927Z,32.77
2018-09-12T10:59:07.134Z,33.07
2018-09-12T11:01:35.228Z,33.23
2018-09-12T11:04:03.339Z,32.33
2018-09-12T11:06:31.443Z,34.02
2018-09-12T11:08:59.531Z,31.76
2018-09-12T11:11:28.299Z,31.37
2018-09-12T11:13:57.664Z,32.47
2018-09-12T11:16:25.780Z,32.67
2018-09-12T11:18:53.970Z,32.77
2018-09-12T11:21:22.075Z,33.33
2018-09-12T11:23:50.271Z,32.51
2018-09-12T11:26:18.281Z,32.26
2018-09-12T11:28:46.393Z,32.22
2018-09-12T11:31:14.515Z,32.06
2018-09-12T11:33:43.018Z,32.45
2018-09-12T11:36:12.161Z,32.10
2018-09-12T11:38:40.305Z,32.12
2018-09-12T11:41:08.674Z,30.64
2018-09-12T11:43:36.757Z,31.30
2018-09-12T11:46:04.887Z,31.27
2018-09-12T11:48:32.970Z,31.90
2018-09-12T11:51:01.096Z,30.87
2018-09-12T11:53:29.529Z,29.93
2018-09-12T11:55:57.641Z,30.67
2018-09-12T11:58:25.776Z,30.68
2018-09-12T12:00:53.998Z,30.37
2018-09-12T12:03:22.119Z,30.10
2018-09-12T12:05:50.211Z,30.16
2018-09-12T12:08:18.372Z,29.85
2018-09-12T12:10:46.465Z,30.43
2018-09-12T12:13:14.615Z,30.68
2018-09-12T12:15:42.763Z,30.26
2018-09-12T12:18:10.868Z,30.61
2018-09-12T12:20:40.037Z,29.79
2018-09-12T12:23:08.213Z,29.55
2018-09-12T12:25:36.271Z,30.31
2018-09-12T12:28:04.391Z,29.89
2018-09-12T12:30:32.519Z,29.02
2018-09-12T12:33:00.690Z,29.51
2018-09-12T12:35:28.903Z,28.99
2018-09-12T12:37:56.952Z,30.35
2018-09-12T12:40:25.040Z,29.76
2018-09-12T12:42:53.148Z,29.09
2018-09-12T12:45:21.265Z,29.56
2018-09-12T12:47:49.363Z,29.38
2018-09-12T12:50:17.451Z,28.75
2018-09-12T12:52:45.675Z,29.74
2018-09-12T12:55:13.837Z,30.24
2018-09-12T12:57:41.955Z,29.42
2018-09-12T13:00:10.208Z,29.39
2018-09-12T13:02:38.317Z,28.90
2018-09-12T13:05:06.492Z,28.90
2018-09-12T13:07:34.591Z,29.84
2018-09-12T13:10:02.850Z,28.89
2018-09-12T13:12:31.964Z,29.31
2018-09-12T13:15:00.064Z,29.70
2018-09-12T13:17:28.164Z,29.53
2018-09-12T13:19:56.310Z,28.60
2018-09-12T13:22:24.445Z,29.83
2018-09-12T13:24:52.594Z,29.98
2018-09-12T13:27:20.802Z,30.45
2018-09-12T13:29:48.906Z,29.48
2018-09-12T13:32:16.991Z,29.62
2018-09-12T13:34:45.105Z,30.29
2018-09-12T13:37:13.207Z,29.62
2018-09-12T13:39:41.324Z,29.96
2018-09-12T13:42:09.437Z,29.57
2018-09-12T13:44:37.560Z,29.37
2018-09-12T13:47:05.733Z,29.64
2018-09-12T13:49:33.846Z,28.98
2018-09-12T13:52:01.940Z,29.29
2018-09-12T13:54:30.088Z,29.28
2018-09-12T13:56:58.209Z,29.25
2018-09-12T13:59:26.312Z,29.27
2018-09-12T14:01:54.411Z,29.45
2018-09-12T14:04:23.204Z,29.51
2018-09-12T14:06:52.207Z,29.22
2018-09-12T14:09:20.327Z,29.19
2018-09-12T14:11:48.417Z,29.47
2018-09-12T14:14:17.128Z,29.40
2018-09-12T14:16:45.336Z,28.67
2018-09-12T14:19:13.452Z,28.53
2018-09-12T14:21:41.580Z,28.87
2018-09-12T14:24:09.735Z,29.27
2018-09-12T14:26:37.831Z,28.80
2018-09-12T14:29:05.931Z,28.79
2018-09-12T14:31:34.548Z,29.30
2018-09-12T14:34:02.667Z,29.05
2018-09-12T14:36:30.852Z,29.02
2018-09-12T14:38:59.026Z,29.53
2018-09-12T14:41:27.100Z,28.96
2018-09-12T14:43:55.226Z,28.93
2018-09-12T14:46:23.336Z,29.82
2018-09-12T14:48:58.193Z,29.50
2018-09-12T14:51:26.291Z,29.53
2018-09-12T14:53:54.508Z,29.72
2018-09-12T14:56:22.624Z,28.47
2018-09-12T14:58:51.008Z,29.29
2018-09-12T15:01:19.099Z,30.67
2018-09-12T15:03:47.271Z,30.15
2018-09-12T15:06:15.394Z,30.06
2018-09-12T15:08:43.490Z,30.21
2018-09-12T15:11:11.599Z,29.85
2018-09-12T15:13:39.704Z,29.66
2018-09-12T15:16:07.820Z,29.32
2018-09-12T15:18:36.123Z,30.08
2018-09-12T15:21:04.295Z,29.69
2018-09-12T15:23:32.425Z,30.35
2018-09-12T15:26:00.539Z,30.50
2018-09-12T15:28:28.617Z,30.90
2018-09-12T15:30:56.728Z,30.38
2018-09-12T15:33:24.824Z,30.83
2018-09-12T15:35:52.999Z,30.82
2018-09-12T15:38:21.103Z,30.36
2018-09-12T15:40:49.279Z,30.51
2018-09-12T15:43:17.468Z,30.52
2018-09-12T15:45:45.656Z,31.01
2018-09-12T15:48:13.736Z,31.32
2018-09-12T15:50:41.903Z,30.85
2018-09-12T15:53:10.016Z,32.01
2018-09-12T15:55:38.177Z,32.08
2018-09-12T15:58:06.271Z,31.87
2018-09-12T16:00:34.365Z,32.24
2018-09-12T16:03:02.515Z,31.52
2018-09-12T16:05:30.724Z,32.14
2018-09-12T16:07:59.197Z,31.76
2018-09-12T16:10:27.332Z,32.94
2018-09-12T16:12:55.432Z,32.11
2018-09-12T16:15:23.585Z,32.72
2018-09-12T16:17:51.646Z,32.44
2018-09-12T16:20:19.777Z,32.14
2018-09-12T16:22:47.911Z,33.04
2018-09-12T16:25:16.023Z,33.13
2018-09-12T16:27:44.123Z,32.62
2018-09-12T16:30:12.374Z,33.44
2018-09-12T16:32:40.543Z,33.54
2018-09-12T16:35:08.818Z,33.57
2018-09-12T16:37:36.924Z,33.93
2018-09-12T16:40:05.835Z,33.89
2018-09-12T16:42:34.243Z,33.71
2018-09-12T16:45:02.333Z,33.62
2018-09-12T16:47:30.448Z,34.72
2018-09-12T16:49:58.535Z,33.98
2018-09-12T16:52:26.635Z,34.12
2018-09-12T16:54:54.724Z,34.20
2018-09-12T16:57:22.841Z,34.29
2018-09-12T16:59:50.937Z,34.62
2018-09-12T17:02:19.088Z,35.32
2018-09-12T17:04:47.152Z,34.68
2018-09-12T17:07:15.250Z,35.13
2018-09-12T17:09:43.306Z,34.99
2018-09-12T17:12:11.379Z,35.71
2018-09-12T17:14:39.917Z,35.90
2018-09-12T17:17:08.051Z,35.36
2018-09-12T17:19:36.222Z,36.00
2018-09-12T17:22:04.344Z,36.23
2018-09-12T17:24:32.431Z,37.04
2018-09-12T17:27:00.501Z,37.22
2018-09-12T17:29:28.595Z,36.98
2018-09-12T17:31:56.686Z,37.43
2018-09-12T17:34:24.784Z,38.31
2018-09-12T17:36:52.896Z,38.39
2018-09-12T17:39:21.027Z,38.42
2018-09-12T17:41:49.143Z,39.62
2018-09-12T17:44:17.245Z,39.74
2018-09-12T17:46:45.347Z,39.79
2018-09-12T17:49:13.451Z,39.73
2018-09-12T17:51:41.559Z,40.36
2018-09-12T17:54:09.731Z,40.62
2018-09-12T17:56:37.840Z,42.10
2018-09-12T17:59:05.936Z,41.61
2018-09-12T18:01:34.027Z,42.77
2018-09-12T18:04:03.080Z,41.81
2018-09-12T18:06:31.216Z,42.86
2018-09-12T18:08:59.427Z,42.92
2018-09-12T18:11:27.969Z,44.23
2018-09-12T18:13:56.126Z,42.98
2018-09-12T18:16:25.123Z,44.15
2018-09-12T18:18:53.247Z,44.58
2018-09-12T18:21:21.619Z,45.67
2018-09-12T18:23:49.718Z,46.20
2018-09-12T18:26:17.851Z,45.70
2018-09-12T18:28:45.957Z,45.87
2018-09-12T18:31:14.159Z,45.53
2018-09-12T18:33:42.808Z,46.81
2018-09-12T18:36:11.063Z,46.01
2018-09-12T18:38:39.112Z,46.44
2018-09-12T18:41:07.219Z,46.22
2018-09-12T18:43:35.344Z,46.63
2018-09-12T18:46:03.443Z,48.61
2018-09-12T18:48:31.544Z,46.92
2018-09-12T18:51:03.813Z,48.19
2018-09-12T18:53:31.927Z,47.59
2018-09-12T18:56:00.045Z,47.28
2018-09-12T18:58:28.174Z,48.20
2018-09-12T19:00:56.284Z,47.35
2018-09-12T19:03:24.449Z,49.14
2018-09-12T19:05:52.490Z,49.80
2018-09-12T19:08:20.674Z,49.55
2018-09-12T19:10:49.227Z,48.95
2018-09-12T19:13:17.427Z,50.12
2018-09-12T19:15:45.690Z,49.81
2018-09-12T19:18:14.536Z,51.03
2018-09-12T19:20:42.879Z,50.50
2018-09-12T19:23:10.988Z,50.95
2018-09-12T19:25:39.148Z,50.35
2018-09-12T19:28:07.228Z,50.65
2018-09-12T19:30:35.390Z,52.03
2018-09-12T19:33:03.496Z,52.57
2018-09-12T19:35:31.621Z,53.03
2018-09-12T19:38:00.933Z,53.58
2018-09-12T19:40:29.040Z,53.91
2018-09-12T19:42:57.166Z,53.44
2018-09-12T19:45:25.352Z,52.91
2018-09-12T19:47:53.628Z,52.92
2018-09-12T19:50:21.733Z,52.44
2018-09-12T19:52:49.876Z,53.51
2018-09-12T19:55:18.014Z,52.60
2018-09-12T19:57:46.944Z,53.15
2018-09-12T20:00:17.280Z,53.54
2018-09-12T20:02:46.200Z,53.02
2018-09-12T20:05:14.339Z,53.60
2018-09-12T20:07:42.501Z,52.45
2018-09-12T20:10:10.643Z,53.66
2018-09-12T20:12:38.745Z,53.55
2018-09-12T20:15:07.000Z,53.55
2018-09-12T20:17:35.144Z,55.11
2018-09-12T20:20:03.256Z,55.46
2018-09-12T20:22:31.559Z,56.24
2018-09-12T20:24:59.671Z,56.74
2018-09-12T20:27:27.871Z,57.50
2018-09-12T20:29:55.999Z,57.48
2018-09-12T20:32:24.103Z,56.52
2018-09-12T20:34:52.306Z,56.81
2018-09-12T20:37:20.427Z,57.70
2018-09-12T20:39:48.546Z,56.97
2018-09-12T20:42:16.652Z,56.87
2018-09-12T20:44:44.784Z,56.05
2018-09-12T20:47:12.909Z,56.94
2018-09-12T20:49:41.218Z,55.98
2018-09-12T20:52:09.384Z,56.01
2018-09-12T20:54:37.523Z,56.03
2018-09-12T20:57:05.755Z,57.11
2018-09-12T20:59:33.959Z,56.23
2018-09-12T21:02:02.144Z,56.65
2018-09-12T21:04:30.245Z,56.99
2018-09-12T21:06:58.470Z,57.22
2018-09-12T21:09:26.563Z,58.35
2018-09-12T21:11:54.663Z,58.49
2018-09-12T21:14:22.779Z,59.24
2018-09-12T21:16:50.883Z,59.69
2018-09-12T21:19:19.602Z,59.63
2018-09-12T21:21:47.719Z,60.28
2018-09-12T21:24:15.962Z,59.98
2018-09-12T21:26:44.047Z,61.42
2018-09-12T21:29:12.135Z,61.78
2018-09-12T21:31:41.063Z,62.22
2018-09-12T21:34:09.198Z,62.07
2018-09-12T21:36:37.311Z,63.34
2018-09-12T21:39:08.447Z,63.56
2018-09-12T21:41:36.547Z,63.67
2018-09-12T21:44:04.656Z,63.43
2018-09-12T21:46:32.820Z,63.46
2018-09-12T21:49:00.932Z,62.68
2018-09-12T21:51:29.348Z,60.52
2018-09-12T21:53:57.510Z,60.84
2018-09-12T21:56:25.642Z,60.15
2018-09-12T21:58:53.819Z,61.05
2018-09-12T22:13:11.102Z,61.89
2018-09-12T22:15:39.426Z,62.28
2018-09-12T22:18:07.608Z,62.86
2018-09-12T22:20:35.747Z,63.22
2018-09-12T22:23:03.950Z,64.04
2018-09-12T22:25:32.078Z,64.20
2018-09-12T22:28:00.182Z,64.16
2018-09-12T22:30:28.271Z,64.15
2018-09-12T22:32:56.649Z,64.58
2018-09-12T22:35:24.746Z,65.14
2018-09-12T22:37:53.643Z,67.21
2018-09-12T22:40:21.727Z,66.50
2018-09-12T22:42:49.837Z,66.20
2018-09-12T22:45:17.945Z,66.64
2018-09-12T22:47:46.084Z,66.57
2018-09-12T22:50:14.187Z,65.56
2018-09-12T22:52:42.270Z,67.18
2018-09-12T22:55:10.367Z,66.73
2018-09-12T22:57:38.439Z,67.58
2018-09-12T23:00:07.934Z,67.64
2018-09-12T23:02:36.007Z,68.00
2018-09-12T23:05:04.096Z,68.09
2018-09-12T23:07:32.158Z,67.66
2018-09-12T23:10:00.232Z,68.29
2018-09-12T23:12:28.303Z,69.01
2018-09-12T23:14:56.384Z,70.05
2018-09-12T23:17:25.230Z,70.82
2018-09-12T23:19:53.543Z,70.33
2018-09-12T23:22:21.627Z,70.38
2018-09-12T23:24:49.712Z,70.99
2018-09-12T23:27:17.790Z,71.12
2018-09-12T23:29:45.903Z,71.39
2018-09-12T23:32:14.110Z,71.21
2018-09-12T23:34:42.207Z,71.50
2018-09-12T23:37:10.295Z,73.14
2018-09-12T23:39:38.460Z,72.68
2018-09-12T23:42:06.531Z,72.16
2018-09-12T23:44:34.614Z,71.69
2018-09-12T23:47:02.719Z,72.48
2018-09-12T23:49:30.780Z,73.18
2018-09-12T23:51:58.877Z,73.21
2018-09-12T23:54:26.966Z,73.15
2018-09-12T23:56:55.135Z,72.45
2018-09-12T23:59:23.223Z,71.99
